
<gpx xmlns="http://www.topografix.com/GPX/1/1" xmlns:gpxx="http://www.garmin.com/xmlschemas/GpxExtensions/v3" xmlns:xsi="http://www.w3.org/2001/XMLSchema-instance" version="1.1" creator="Adze - https://getadze.com/" xsi:schemaLocation="http://www.topografix.com/GPX/1/1 http://www.topografix.com/GPX/1/1/gpx.xsd http://www.garmin.com/xmlschemas/GpxExtensions/v3 http://www.garmin.com/xmlschemas/GpxExtensionsv3.xsd">
    <metadata>
        <name>Untitled Document</name>
        <link href="http://www.garmin.com"></link>
        <time>2018-03-08T07:39:24.565Z</time>
    </metadata>
    <wpt lon="99.498626" lat="14.040708">
        <ele>31.089600</ele>
        <name>Felix Resort</name>
        <cmt>25-SEP-10 12:38:06</cmt>
        <desc>25-SEP-10 12:38:06</desc>
        <sym>Lodging</sym>
        <extensions>
            <gpxx:WaypointExtension xmlns:gpxx="http://www.garmin.com/xmlschemas/GpxExtensions/v3">
                <gpxx:DisplayMode>SymbolOnly</gpxx:DisplayMode>
            </gpxx:WaypointExtension>
        </extensions>
    </wpt>
    <trk>
        <name>September 2010 - Sunday</name>
        <extensions>
            <gpxx:TrackExtension xmlns:gpxx="http://www.garmin.com/xmlschemas/GpxExtensions/v3">
                <gpxx:DisplayColor>Green</gpxx:DisplayColor>
            </gpxx:TrackExtension>
        </extensions>
        <trkseg>
            <trkpt lon="99.457374" lat="14.037865">
                <ele>48.203369</ele>
                <time>2010-09-19T09:58:15Z</time>
            </trkpt>
            <trkpt lon="99.455140" lat="14.036763">
                <ele>50.606567</ele>
                <time>2010-09-19T09:55:40Z</time>
            </trkpt>
            <trkpt lon="99.453864" lat="14.035925">
                <ele>48.683960</ele>
                <time>2010-09-19T09:55:01Z</time>
            </trkpt>
            <trkpt lon="99.453929" lat="14.035552">
                <ele>51.567871</ele>
                <time>2010-09-19T09:54:49Z</time>
            </trkpt>
            <trkpt lon="99.454313" lat="14.035075">
                <ele>56.374512</ele>
                <time>2010-09-19T09:54:38Z</time>
            </trkpt>
            <trkpt lon="99.455257" lat="14.034686">
                <ele>62.142334</ele>
                <time>2010-09-19T09:54:16Z</time>
            </trkpt>
            <trkpt lon="99.455689" lat="14.034314">
                <ele>63.103638</ele>
                <time>2010-09-19T09:53:47Z</time>
            </trkpt>
            <trkpt lon="99.455986" lat="14.034270">
                <ele>64.065063</ele>
                <time>2010-09-19T09:48:07Z</time>
            </trkpt>
            <trkpt lon="99.455631" lat="14.033436">
                <ele>64.065063</ele>
                <time>2010-09-19T09:47:41Z</time>
            </trkpt>
            <trkpt lon="99.455230" lat="14.033017">
                <ele>59.258423</ele>
                <time>2010-09-19T09:47:26Z</time>
            </trkpt>
            <trkpt lon="99.455371" lat="14.032834">
                <ele>56.855103</ele>
                <time>2010-09-19T09:47:18Z</time>
            </trkpt>
            <trkpt lon="99.455260" lat="14.031989">
                <ele>56.855103</ele>
                <time>2010-09-19T09:47:00Z</time>
            </trkpt>
            <trkpt lon="99.457104" lat="14.032202">
                <ele>46.761231</ele>
                <time>2010-09-26T02:08:16Z</time>
            </trkpt>
            <trkpt lon="99.456804" lat="14.030485">
                <ele>50.125977</ele>
                <time>2010-09-26T02:08:47Z</time>
            </trkpt>
            <trkpt lon="99.456353" lat="14.029927">
                <ele>53.490479</ele>
                <time>2010-09-26T02:09:01Z</time>
            </trkpt>
            <trkpt lon="99.455967" lat="14.029498">
                <ele>53.971191</ele>
                <time>2010-09-26T02:09:12Z</time>
            </trkpt>
            <trkpt lon="99.455988" lat="14.029455">
                <ele>53.490479</ele>
                <time>2010-09-26T02:09:16Z</time>
            </trkpt>
            <trkpt lon="99.457426" lat="14.029026">
                <ele>52.048584</ele>
                <time>2010-09-26T02:09:58Z</time>
            </trkpt>
            <trkpt lon="99.459422" lat="14.028146">
                <ele>49.164551</ele>
                <time>2010-09-26T02:10:47Z</time>
            </trkpt>
            <trkpt lon="99.460130" lat="14.027910">
                <ele>47.241821</ele>
                <time>2010-09-26T02:11:04Z</time>
            </trkpt>
            <trkpt lon="99.463542" lat="14.026966">
                <ele>43.877319</ele>
                <time>2010-09-26T02:12:39Z</time>
            </trkpt>
            <trkpt lon="99.461975" lat="14.024477">
                <ele>40.032105</ele>
                <time>2010-09-26T02:13:56Z</time>
            </trkpt>
            <trkpt lon="99.462061" lat="14.024327">
                <ele>39.551269</ele>
                <time>2010-09-26T02:14:04Z</time>
            </trkpt>
            <trkpt lon="99.463584" lat="14.023704">
                <ele>39.070679</ele>
                <time>2010-09-26T02:14:44Z</time>
            </trkpt>
            <trkpt lon="99.464164" lat="14.023511">
                <ele>38.590088</ele>
                <time>2010-09-26T02:14:58Z</time>
            </trkpt>
            <trkpt lon="99.462447" lat="14.020808">
                <ele>40.512817</ele>
                <time>2010-09-26T02:19:58Z</time>
            </trkpt>
            <trkpt lon="99.462619" lat="14.020421">
                <ele>40.512817</ele>
                <time>2010-09-26T02:20:01Z</time>
            </trkpt>
            <trkpt lon="99.462276" lat="14.020014">
                <ele>41.473999</ele>
                <time>2010-09-26T02:20:35Z</time>
            </trkpt>
            <trkpt lon="99.462640" lat="14.019735">
                <ele>40.032105</ele>
                <time>2010-09-26T02:20:53Z</time>
            </trkpt>
            <trkpt lon="99.463005" lat="14.019048">
                <ele>42.916016</ele>
                <time>2010-09-26T02:21:14Z</time>
            </trkpt>
            <trkpt lon="99.463499" lat="14.018662">
                <ele>42.435425</ele>
                <time>2010-09-26T02:21:25Z</time>
            </trkpt>
            <trkpt lon="99.463820" lat="14.018683">
                <ele>42.916016</ele>
                <time>2010-09-26T02:21:35Z</time>
            </trkpt>
            <trkpt lon="99.464078" lat="14.019799">
                <ele>38.590088</ele>
                <time>2010-09-26T02:22:01Z</time>
            </trkpt>
            <trkpt lon="99.464443" lat="14.020271">
                <ele>37.628662</ele>
                <time>2010-09-26T02:22:17Z</time>
            </trkpt>
            <trkpt lon="99.464829" lat="14.019971">
                <ele>38.109375</ele>
                <time>2010-09-26T02:22:31Z</time>
            </trkpt>
            <trkpt lon="99.465795" lat="14.019434">
                <ele>33.783447</ele>
                <time>2010-09-26T02:22:49Z</time>
            </trkpt>
            <trkpt lon="99.469743" lat="14.018211">
                <ele>28.976929</ele>
                <time>2010-09-26T02:23:55Z</time>
            </trkpt>
            <trkpt lon="99.469957" lat="14.018254">
                <ele>29.457520</ele>
                <time>2010-09-26T02:24:00Z</time>
            </trkpt>
            <trkpt lon="99.470322" lat="14.018726">
                <ele>30.418823</ele>
                <time>2010-09-26T02:24:11Z</time>
            </trkpt>
            <trkpt lon="99.470708" lat="14.019349">
                <ele>29.457520</ele>
                <time>2010-09-26T02:24:28Z</time>
            </trkpt>
            <trkpt lon="99.470665" lat="14.019263">
                <ele>29.457520</ele>
                <time>2010-09-26T02:25:29Z</time>
            </trkpt>
            <trkpt lon="99.470944" lat="14.019156">
                <ele>29.938110</ele>
                <time>2010-09-26T02:25:38Z</time>
            </trkpt>
            <trkpt lon="99.471331" lat="14.018920">
                <ele>28.496216</ele>
                <time>2010-09-26T02:26:03Z</time>
            </trkpt>
            <trkpt lon="99.470859" lat="14.017868">
                <ele>28.976929</ele>
                <time>2010-09-26T02:26:53Z</time>
            </trkpt>
            <trkpt lon="99.471245" lat="14.017653">
                <ele>28.976929</ele>
                <time>2010-09-26T02:27:18Z</time>
            </trkpt>
            <trkpt lon="99.471588" lat="14.017525">
                <ele>28.496216</ele>
                <time>2010-09-26T02:27:31Z</time>
            </trkpt>
            <trkpt lon="99.471395" lat="14.017482">
                <ele>28.015503</ele>
                <time>2010-09-26T02:29:17Z</time>
            </trkpt>
            <trkpt lon="99.472876" lat="14.019906">
                <ele>30.899536</ele>
                <time>2010-09-26T02:30:14Z</time>
            </trkpt>
            <trkpt lon="99.474056" lat="14.021988">
                <ele>30.418823</ele>
                <time>2010-09-26T02:31:03Z</time>
            </trkpt>
            <trkpt lon="99.474013" lat="14.021859">
                <ele>31.860718</ele>
                <time>2010-09-26T02:34:01Z</time>
            </trkpt>
            <trkpt lon="99.474142" lat="14.021945">
                <ele>32.341553</ele>
                <time>2010-09-26T02:34:29Z</time>
            </trkpt>
            <trkpt lon="99.474442" lat="14.021816">
                <ele>32.822266</ele>
                <time>2010-09-26T02:34:39Z</time>
            </trkpt>
            <trkpt lon="99.475622" lat="14.021065">
                <ele>32.341553</ele>
                <time>2010-09-26T02:35:01Z</time>
            </trkpt>
            <trkpt lon="99.476695" lat="14.020786">
                <ele>32.341553</ele>
                <time>2010-09-26T02:35:16Z</time>
            </trkpt>
            <trkpt lon="99.477253" lat="14.020486">
                <ele>32.822266</ele>
                <time>2010-09-26T02:35:26Z</time>
            </trkpt>
            <trkpt lon="99.480214" lat="14.020486">
                <ele>31.380127</ele>
                <time>2010-09-26T02:36:11Z</time>
            </trkpt>
            <trkpt lon="99.481201" lat="14.020636">
                <ele>30.899536</ele>
                <time>2010-09-26T02:36:26Z</time>
            </trkpt>
            <trkpt lon="99.482081" lat="14.021688">
                <ele>30.899536</ele>
                <time>2010-09-26T02:36:45Z</time>
            </trkpt>
            <trkpt lon="99.482489" lat="14.021838">
                <ele>29.938110</ele>
                <time>2010-09-26T02:36:53Z</time>
            </trkpt>
            <trkpt lon="99.483540" lat="14.021902">
                <ele>30.899536</ele>
                <time>2010-09-26T02:37:11Z</time>
            </trkpt>
            <trkpt lon="99.483883" lat="14.021623">
                <ele>29.938110</ele>
                <time>2010-09-26T02:37:19Z</time>
            </trkpt>
            <trkpt lon="99.484463" lat="14.021752">
                <ele>29.938110</ele>
                <time>2010-09-26T02:37:28Z</time>
            </trkpt>
            <trkpt lon="99.485085" lat="14.022245">
                <ele>30.899536</ele>
                <time>2010-09-26T02:37:40Z</time>
            </trkpt>
            <trkpt lon="99.486201" lat="14.023426">
                <ele>31.860718</ele>
                <time>2010-09-26T02:38:04Z</time>
            </trkpt>
            <trkpt lon="99.487746" lat="14.024541">
                <ele>30.899536</ele>
                <time>2010-09-26T02:38:37Z</time>
            </trkpt>
            <trkpt lon="99.490321" lat="14.027116">
                <ele>30.899536</ele>
                <time>2010-09-26T02:39:41Z</time>
            </trkpt>
            <trkpt lon="99.490299" lat="14.027266">
                <ele>30.899536</ele>
                <time>2010-09-26T02:42:03Z</time>
            </trkpt>
            <trkpt lon="99.491050" lat="14.026709">
                <ele>33.302856</ele>
                <time>2010-09-26T02:42:17Z</time>
            </trkpt>
            <trkpt lon="99.492145" lat="14.025743">
                <ele>33.302856</ele>
                <time>2010-09-26T02:42:31Z</time>
            </trkpt>
            <trkpt lon="99.492295" lat="14.025614">
                <ele>29.938110</ele>
                <time>2010-09-26T02:42:35Z</time>
            </trkpt>
            <trkpt lon="99.492295" lat="14.025764">
                <ele>29.938110</ele>
                <time>2010-09-26T02:43:24Z</time>
            </trkpt>
            <trkpt lon="99.492788" lat="14.026258">
                <ele>29.938110</ele>
                <time>2010-09-26T02:43:35Z</time>
            </trkpt>
            <trkpt lon="99.493067" lat="14.026494">
                <ele>28.015503</ele>
                <time>2010-09-26T02:43:43Z</time>
            </trkpt>
            <trkpt lon="99.492424" lat="14.025936">
                <ele>27.534912</ele>
                <time>2010-09-26T02:46:17Z</time>
            </trkpt>
            <trkpt lon="99.492252" lat="14.025636">
                <ele>28.976929</ele>
                <time>2010-09-26T02:46:49Z</time>
            </trkpt>
            <trkpt lon="99.491973" lat="14.025850">
                <ele>29.938110</ele>
                <time>2010-09-26T02:47:09Z</time>
            </trkpt>
            <trkpt lon="99.490643" lat="14.027031">
                <ele>27.534912</ele>
                <time>2010-09-26T02:48:01Z</time>
            </trkpt>
            <trkpt lon="99.490364" lat="14.027159">
                <ele>28.976929</ele>
                <time>2010-09-26T02:51:38Z</time>
            </trkpt>
            <trkpt lon="99.490256" lat="14.027374">
                <ele>29.938110</ele>
                <time>2010-09-26T02:51:42Z</time>
            </trkpt>
            <trkpt lon="99.490385" lat="14.027867">
                <ele>30.899536</ele>
                <time>2010-09-26T02:51:49Z</time>
            </trkpt>
            <trkpt lon="99.490600" lat="14.028425">
                <ele>28.015503</ele>
                <time>2010-09-26T02:51:59Z</time>
            </trkpt>
            <trkpt lon="99.490986" lat="14.028854">
                <ele>30.418823</ele>
                <time>2010-09-26T02:52:33Z</time>
            </trkpt>
            <trkpt lon="99.492810" lat="14.030957">
                <ele>27.534912</ele>
                <time>2010-09-26T02:53:23Z</time>
            </trkpt>
            <trkpt lon="99.493797" lat="14.030700">
                <ele>28.976929</ele>
                <time>2010-09-26T02:53:43Z</time>
            </trkpt>
            <trkpt lon="99.494891" lat="14.030056">
                <ele>28.015503</ele>
                <time>2010-09-26T02:54:07Z</time>
            </trkpt>
            <trkpt lon="99.495320" lat="14.029970">
                <ele>28.976929</ele>
                <time>2010-09-26T02:54:14Z</time>
            </trkpt>
            <trkpt lon="99.496651" lat="14.030142">
                <ele>28.976929</ele>
                <time>2010-09-26T02:54:38Z</time>
            </trkpt>
            <trkpt lon="99.497123" lat="14.030507">
                <ele>28.976929</ele>
                <time>2010-09-26T02:54:47Z</time>
            </trkpt>
            <trkpt lon="99.498196" lat="14.032245">
                <ele>28.496216</ele>
                <time>2010-09-26T02:55:27Z</time>
            </trkpt>
            <trkpt lon="99.498839" lat="14.032373">
                <ele>28.976929</ele>
                <time>2010-09-26T02:55:36Z</time>
            </trkpt>
            <trkpt lon="99.499419" lat="14.032953">
                <ele>29.938110</ele>
                <time>2010-09-26T02:55:49Z</time>
            </trkpt>
            <trkpt lon="99.499569" lat="14.033232">
                <ele>29.938110</ele>
                <time>2010-09-26T02:55:55Z</time>
            </trkpt>
            <trkpt lon="99.498002" lat="14.034111">
                <ele>28.496216</ele>
                <time>2010-09-26T02:56:30Z</time>
            </trkpt>
            <trkpt lon="99.497981" lat="14.034476">
                <ele>28.015503</ele>
                <time>2010-09-26T02:56:36Z</time>
            </trkpt>
            <trkpt lon="99.498796" lat="14.036000">
                <ele>28.976929</ele>
                <time>2010-09-26T02:56:51Z</time>
            </trkpt>
            <trkpt lon="99.498882" lat="14.036129">
                <ele>27.534912</ele>
                <time>2010-09-26T02:56:53Z</time>
            </trkpt>
            <trkpt lon="99.500062" lat="14.037480">
                <ele>32.822266</ele>
                <time>2010-09-26T02:57:08Z</time>
            </trkpt>
            <trkpt lon="99.500148" lat="14.037588">
                <ele>32.822266</ele>
                <time>2010-09-26T02:57:09Z</time>
            </trkpt>
            <trkpt lon="99.500642" lat="14.038403">
                <ele>29.938110</ele>
                <time>2010-09-26T02:57:16Z</time>
            </trkpt>
            <trkpt lon="99.500856" lat="14.039605">
                <ele>27.054321</ele>
                <time>2010-09-26T02:57:37Z</time>
            </trkpt>
            <trkpt lon="99.501414" lat="14.040721">
                <ele>25.612305</ele>
                <time>2010-09-26T02:57:56Z</time>
            </trkpt>
            <trkpt lon="99.501350" lat="14.041128">
                <ele>25.612305</ele>
                <time>2010-09-26T02:58:02Z</time>
            </trkpt>
            <trkpt lon="99.500406" lat="14.041901">
                <ele>25.612305</ele>
                <time>2010-09-26T02:58:17Z</time>
            </trkpt>
            <trkpt lon="99.500256" lat="14.041879">
                <ele>25.612305</ele>
                <time>2010-09-26T02:58:21Z</time>
            </trkpt>
            <trkpt lon="99.499977" lat="14.041450">
                <ele>25.612305</ele>
                <time>2010-09-26T02:58:29Z</time>
            </trkpt>
            <trkpt lon="99.499891" lat="14.041107">
                <ele>26.092896</ele>
                <time>2010-09-26T02:58:34Z</time>
            </trkpt>
            <trkpt lon="99.499719" lat="14.040613">
                <ele>24.651001</ele>
                <time>2010-09-26T02:58:41Z</time>
            </trkpt>
            <trkpt lon="99.498796" lat="14.040677">
                <ele>23.208984</ele>
                <time>2010-09-26T02:59:00Z</time>
            </trkpt>
            <trkpt lon="99.498775" lat="14.040828">
                <ele>24.170288</ele>
                <time>2010-09-26T03:00:52Z</time>
            </trkpt>
            <trkpt lon="99.498453" lat="14.040957">
                <ele>24.651001</ele>
                <time>2010-09-26T03:01:36Z</time>
            </trkpt>
            <trkpt lon="99.497616" lat="14.041107">
                <ele>27.054321</ele>
                <time>2010-09-26T03:01:53Z</time>
            </trkpt>
            <trkpt lon="99.497552" lat="14.041042">
                <ele>26.573608</ele>
                <time>2010-09-26T03:02:02Z</time>
            </trkpt>
            <trkpt lon="99.498196" lat="14.041042">
                <ele>25.612305</ele>
                <time>2010-09-26T03:01:43Z</time>
            </trkpt>
            <trkpt lon="99.498775" lat="14.040828">
                <ele>24.170288</ele>
                <time>2010-09-26T03:00:52Z</time>
            </trkpt>
            <trkpt lon="99.498796" lat="14.040677">
                <ele>23.208984</ele>
                <time>2010-09-26T02:59:00Z</time>
            </trkpt>
            <trkpt lon="99.499268" lat="14.040570">
                <ele>23.689575</ele>
                <time>2010-09-26T02:58:47Z</time>
            </trkpt>
            <trkpt lon="99.499719" lat="14.040613">
                <ele>24.651001</ele>
                <time>2010-09-26T02:58:41Z</time>
            </trkpt>
            <trkpt lon="99.499741" lat="14.040098">
                <ele>17.429565</ele>
            </trkpt>
            <trkpt lon="99.498947" lat="14.038253">
                <ele>16.948853</ele>
            </trkpt>
            <trkpt lon="99.498839" lat="14.038296">
                <ele>17.910156</ele>
            </trkpt>
            <trkpt lon="99.498496" lat="14.038296">
                <ele>15.987549</ele>
            </trkpt>
            <trkpt lon="99.498367" lat="14.037802">
                <ele>16.468140</ele>
            </trkpt>
            <trkpt lon="99.498532" lat="14.037556">
                <ele>33.783447</ele>
                <time>2010-09-19T04:44:25Z</time>
            </trkpt>
            <trkpt lon="99.498958" lat="14.037151">
                <ele>32.822266</ele>
                <time>2010-09-19T04:44:37Z</time>
            </trkpt>
            <trkpt lon="99.498842" lat="14.036845">
                <ele>34.744873</ele>
                <time>2010-09-19T04:44:44Z</time>
            </trkpt>
            <trkpt lon="99.498250" lat="14.036023">
                <ele>35.225464</ele>
                <time>2010-09-19T04:45:05Z</time>
            </trkpt>
            <trkpt lon="99.497760" lat="14.036219">
                <ele>36.667481</ele>
                <time>2010-09-19T04:45:15Z</time>
            </trkpt>
            <trkpt lon="99.497491" lat="14.036342">
                <ele>34.744873</ele>
                <time>2010-09-19T04:45:33Z</time>
            </trkpt>
            <trkpt lon="99.497329" lat="14.036127">
                <ele>35.225464</ele>
                <time>2010-09-19T04:45:39Z</time>
            </trkpt>
            <trkpt lon="99.497069" lat="14.036073">
                <ele>35.706055</ele>
                <time>2010-09-19T04:45:44Z</time>
            </trkpt>
            <trkpt lon="99.496247" lat="14.036365">
                <ele>35.706055</ele>
                <time>2010-09-19T04:45:59Z</time>
            </trkpt>
            <trkpt lon="99.495119" lat="14.035947">
                <ele>35.225464</ele>
                <time>2010-09-19T04:46:17Z</time>
            </trkpt>
            <trkpt lon="99.494473" lat="14.035853">
                <ele>34.744873</ele>
                <time>2010-09-19T04:46:28Z</time>
            </trkpt>
            <trkpt lon="99.494187" lat="14.035518">
                <ele>36.186768</ele>
                <time>2010-09-19T04:46:53Z</time>
            </trkpt>
            <trkpt lon="99.492439" lat="14.035901">
                <ele>36.186768</ele>
                <time>2010-09-19T04:47:57Z</time>
            </trkpt>
            <trkpt lon="99.492422" lat="14.035903">
                <ele>35.706055</ele>
                <time>2010-09-19T04:48:01Z</time>
            </trkpt>
            <trkpt lon="99.491872" lat="14.034492">
                <ele>36.667481</ele>
                <time>2010-09-19T04:48:53Z</time>
            </trkpt>
            <trkpt lon="99.490821" lat="14.032929">
                <ele>37.148071</ele>
                <time>2010-09-19T04:49:35Z</time>
            </trkpt>
            <trkpt lon="99.490461" lat="14.032387">
                <ele>35.706055</ele>
                <time>2010-09-19T04:50:08Z</time>
            </trkpt>
            <trkpt lon="99.489141" lat="14.032761">
                <ele>36.186768</ele>
                <time>2010-09-19T04:50:43Z</time>
            </trkpt>
            <trkpt lon="99.488788" lat="14.032981">
                <ele>36.186768</ele>
                <time>2010-09-19T04:50:53Z</time>
            </trkpt>
            <trkpt lon="99.488432" lat="14.033501">
                <ele>36.186768</ele>
                <time>2010-09-19T04:51:10Z</time>
            </trkpt>
            <trkpt lon="99.488403" lat="14.033749">
                <ele>35.706055</ele>
                <time>2010-09-19T04:51:16Z</time>
            </trkpt>
            <trkpt lon="99.487929" lat="14.033781">
                <ele>39.070679</ele>
                <time>2010-09-19T04:51:25Z</time>
            </trkpt>
            <trkpt lon="99.487121" lat="14.033604">
                <ele>38.109375</ele>
                <time>2010-09-19T04:51:37Z</time>
            </trkpt>
            <trkpt lon="99.486160" lat="14.033613">
                <ele>37.628662</ele>
                <time>2010-09-19T04:51:51Z</time>
            </trkpt>
            <trkpt lon="99.484764" lat="14.034387">
                <ele>37.148071</ele>
                <time>2010-09-19T04:52:19Z</time>
            </trkpt>
            <trkpt lon="99.483884" lat="14.035156">
                <ele>39.070679</ele>
                <time>2010-09-19T04:53:28Z</time>
            </trkpt>
            <trkpt lon="99.483581" lat="14.035401">
                <ele>38.590088</ele>
                <time>2010-09-19T04:53:33Z</time>
            </trkpt>
            <trkpt lon="99.483009" lat="14.035334">
                <ele>39.070679</ele>
                <time>2010-09-19T04:53:42Z</time>
            </trkpt>
            <trkpt lon="99.482652" lat="14.035329">
                <ele>38.109375</ele>
                <time>2010-09-19T04:53:48Z</time>
            </trkpt>
            <trkpt lon="99.481007" lat="14.036174">
                <ele>37.148071</ele>
                <time>2010-09-19T04:54:20Z</time>
            </trkpt>
            <trkpt lon="99.481205" lat="14.036846">
                <ele>40.032105</ele>
                <time>2010-09-19T04:56:13Z</time>
            </trkpt>
            <trkpt lon="99.481229" lat="14.037024">
                <ele>37.628662</ele>
                <time>2010-09-19T04:56:16Z</time>
            </trkpt>
            <trkpt lon="99.481072" lat="14.037039">
                <ele>37.628662</ele>
                <time>2010-09-19T04:56:20Z</time>
            </trkpt>
            <trkpt lon="99.480035" lat="14.036900">
                <ele>37.148071</ele>
                <time>2010-09-19T04:56:39Z</time>
            </trkpt>
            <trkpt lon="99.480177" lat="14.036487">
                <ele>36.667481</ele>
                <time>2010-09-19T04:56:51Z</time>
            </trkpt>
            <trkpt lon="99.480112" lat="14.036197">
                <ele>36.667481</ele>
                <time>2010-09-19T04:56:58Z</time>
            </trkpt>
            <trkpt lon="99.479333" lat="14.035148">
                <ele>40.032105</ele>
                <time>2010-09-19T04:57:15Z</time>
            </trkpt>
            <trkpt lon="99.478620" lat="14.034451">
                <ele>37.628662</ele>
                <time>2010-09-19T04:57:30Z</time>
            </trkpt>
            <trkpt lon="99.478291" lat="14.033853">
                <ele>38.109375</ele>
                <time>2010-09-19T04:57:42Z</time>
            </trkpt>
            <trkpt lon="99.477907" lat="14.033292">
                <ele>37.148071</ele>
                <time>2010-09-19T04:58:08Z</time>
            </trkpt>
            <trkpt lon="99.477229" lat="14.033887">
                <ele>39.551269</ele>
                <time>2010-09-19T05:02:05Z</time>
            </trkpt>
            <trkpt lon="99.476719" lat="14.034120">
                <ele>40.512817</ele>
                <time>2010-09-19T05:02:13Z</time>
            </trkpt>
            <trkpt lon="99.476271" lat="14.034465">
                <ele>38.109375</ele>
                <time>2010-09-19T05:02:36Z</time>
            </trkpt>
            <trkpt lon="99.475427" lat="14.034562">
                <ele>41.473999</ele>
                <time>2010-09-19T05:02:54Z</time>
            </trkpt>
            <trkpt lon="99.476761" lat="14.036587">
                <ele>37.628662</ele>
                <time>2010-09-19T05:03:49Z</time>
            </trkpt>
            <trkpt lon="99.476773" lat="14.036880">
                <ele>38.109375</ele>
                <time>2010-09-19T05:05:31Z</time>
            </trkpt>
            <trkpt lon="99.476483" lat="14.036841">
                <ele>38.590088</ele>
                <time>2010-09-19T05:05:38Z</time>
            </trkpt>
            <trkpt lon="99.474823" lat="14.034683">
                <ele>38.109375</ele>
                <time>2010-09-19T05:06:42Z</time>
            </trkpt>
            <trkpt lon="99.474134" lat="14.034667">
                <ele>38.590088</ele>
                <time>2010-09-19T05:06:58Z</time>
            </trkpt>
            <trkpt lon="99.473854" lat="14.034509">
                <ele>39.551269</ele>
                <time>2010-09-19T05:07:09Z</time>
            </trkpt>
            <trkpt lon="99.472757" lat="14.033535">
                <ele>39.551269</ele>
                <time>2010-09-19T05:07:35Z</time>
            </trkpt>
            <trkpt lon="99.472122" lat="14.033900">
                <ele>40.032105</ele>
                <time>2010-09-19T05:07:51Z</time>
            </trkpt>
            <trkpt lon="99.471796" lat="14.034241">
                <ele>39.070679</ele>
                <time>2010-09-19T05:08:04Z</time>
            </trkpt>
            <trkpt lon="99.471501" lat="14.034316">
                <ele>39.551269</ele>
                <time>2010-09-19T05:08:10Z</time>
            </trkpt>
            <trkpt lon="99.471240" lat="14.034743">
                <ele>40.032105</ele>
                <time>2010-09-19T05:08:18Z</time>
            </trkpt>
            <trkpt lon="99.471264" lat="14.035389">
                <ele>40.032105</ele>
                <time>2010-09-19T05:08:27Z</time>
            </trkpt>
            <trkpt lon="99.470951" lat="14.036137">
                <ele>40.512817</ele>
                <time>2010-09-19T05:08:39Z</time>
            </trkpt>
            <trkpt lon="99.470582" lat="14.036758">
                <ele>39.070679</ele>
                <time>2010-09-19T05:08:54Z</time>
            </trkpt>
            <trkpt lon="99.470966" lat="14.037022">
                <ele>37.628662</ele>
                <time>2010-09-19T05:10:07Z</time>
            </trkpt>
            <trkpt lon="99.471041" lat="14.038808">
                <ele>39.070679</ele>
                <time>2010-09-19T05:11:32Z</time>
            </trkpt>
            <trkpt lon="99.471099" lat="14.039239">
                <ele>37.628662</ele>
                <time>2010-09-19T05:14:29Z</time>
            </trkpt>
            <trkpt lon="99.469741" lat="14.039520">
                <ele>39.551269</ele>
                <time>2010-09-19T05:15:06Z</time>
            </trkpt>
            <trkpt lon="99.468177" lat="14.039540">
                <ele>40.993408</ele>
                <time>2010-09-19T05:15:30Z</time>
            </trkpt>
            <trkpt lon="99.467983" lat="14.039562">
                <ele>40.512817</ele>
                <time>2010-09-19T05:15:33Z</time>
            </trkpt>
            <trkpt lon="99.467145" lat="14.038889">
                <ele>40.032105</ele>
                <time>2010-09-19T05:17:21Z</time>
            </trkpt>
            <trkpt lon="99.466665" lat="14.039299">
                <ele>39.551269</ele>
                <time>2010-09-19T05:20:39Z</time>
            </trkpt>
            <trkpt lon="99.465810" lat="14.039588">
                <ele>40.512817</ele>
                <time>2010-09-19T05:20:53Z</time>
            </trkpt>
            <trkpt lon="99.463979" lat="14.041601">
                <ele>42.916016</ele>
                <time>2010-09-19T05:22:36Z</time>
            </trkpt>
            <trkpt lon="99.463177" lat="14.042265">
                <ele>29.926514</ele>
            </trkpt>
            <trkpt lon="99.461997" lat="14.042995">
                <ele>31.368530</ele>
            </trkpt>
            <trkpt lon="99.461846" lat="14.042995">
                <ele>30.407227</ele>
            </trkpt>
            <trkpt lon="99.461396" lat="14.042416">
                <ele>30.887940</ele>
            </trkpt>
            <trkpt lon="99.461138" lat="14.042373">
                <ele>30.407227</ele>
            </trkpt>
            <trkpt lon="99.460452" lat="14.042652">
                <ele>30.887940</ele>
            </trkpt>
            <trkpt lon="99.459658" lat="14.042673">
                <ele>31.849121</ele>
            </trkpt>
            <trkpt lon="99.459486" lat="14.042673">
                <ele>29.926514</ele>
            </trkpt>
            <trkpt lon="99.458156" lat="14.042222">
                <ele>32.329834</ele>
            </trkpt>
            <trkpt lon="99.457143" lat="14.042608">
                <ele>41.473999</ele>
                <time>2010-09-19T06:27:25Z</time>
            </trkpt>
            <trkpt lon="99.456893" lat="14.042742">
                <ele>40.032105</ele>
                <time>2010-09-19T06:27:36Z</time>
            </trkpt>
            <trkpt lon="99.456803" lat="14.043123">
                <ele>40.993408</ele>
                <time>2010-09-19T06:33:37Z</time>
            </trkpt>
            <trkpt lon="99.456351" lat="14.043331">
                <ele>40.512817</ele>
                <time>2010-09-19T06:16:37Z</time>
            </trkpt>
            <trkpt lon="99.456688" lat="14.044981">
                <ele>40.512817</ele>
                <time>2010-09-19T06:16:12Z</time>
            </trkpt>
            <trkpt lon="99.456553" lat="14.046232">
                <ele>42.916016</ele>
                <time>2010-09-19T06:15:49Z</time>
            </trkpt>
            <trkpt lon="99.456864" lat="14.046654">
                <ele>40.032105</ele>
                <time>2010-09-19T06:13:03Z</time>
            </trkpt>
            <trkpt lon="99.455978" lat="14.046748">
                <ele>42.916016</ele>
                <time>2010-09-19T07:16:28Z</time>
            </trkpt>
            <trkpt lon="99.452883" lat="14.046658">
                <ele>39.551269</ele>
                <time>2010-09-19T08:00:24Z</time>
            </trkpt>
            <trkpt lon="99.451935" lat="14.046168">
                <ele>41.954712</ele>
                <time>2010-09-19T08:00:45Z</time>
            </trkpt>
            <trkpt lon="99.451447" lat="14.046108">
                <ele>41.954712</ele>
                <time>2010-09-19T08:01:56Z</time>
            </trkpt>
            <trkpt lon="99.450388" lat="14.046149">
                <ele>41.473999</ele>
                <time>2010-09-26T00:48:53Z</time>
            </trkpt>
            <trkpt lon="99.448907" lat="14.046857">
                <ele>40.512817</ele>
                <time>2010-09-26T00:49:19Z</time>
            </trkpt>
            <trkpt lon="99.448607" lat="14.047501">
                <ele>40.512817</ele>
                <time>2010-09-26T00:49:34Z</time>
            </trkpt>
            <trkpt lon="99.447320" lat="14.048059">
                <ele>40.032105</ele>
                <time>2010-09-26T00:50:17Z</time>
            </trkpt>
            <trkpt lon="99.447856" lat="14.046814">
                <ele>43.877319</ele>
                <time>2010-09-26T00:51:42Z</time>
            </trkpt>
            <trkpt lon="99.447985" lat="14.046128">
                <ele>44.358032</ele>
                <time>2010-09-26T00:51:49Z</time>
            </trkpt>
            <trkpt lon="99.447342" lat="14.041647">
                <ele>47.722534</ele>
                <time>2010-09-19T08:19:41Z</time>
            </trkpt>
            <trkpt lon="99.446863" lat="14.040922">
                <ele>47.722534</ele>
                <time>2010-09-19T08:20:00Z</time>
            </trkpt>
            <trkpt lon="99.446047" lat="14.040618">
                <ele>48.683960</ele>
                <time>2010-09-19T08:21:02Z</time>
            </trkpt>
            <trkpt lon="99.445680" lat="14.040642">
                <ele>49.164551</ele>
                <time>2010-09-19T08:21:16Z</time>
            </trkpt>
            <trkpt lon="99.445513" lat="14.040459">
                <ele>48.683960</ele>
                <time>2010-09-19T08:21:29Z</time>
            </trkpt>
            <trkpt lon="99.444074" lat="14.039916">
                <ele>51.567871</ele>
                <time>2010-09-19T08:22:43Z</time>
            </trkpt>
            <trkpt lon="99.443237" lat="14.039515">
                <ele>52.048584</ele>
                <time>2010-09-19T08:23:19Z</time>
            </trkpt>
            <trkpt lon="99.441938" lat="14.039874">
                <ele>53.009766</ele>
                <time>2010-09-19T08:23:55Z</time>
            </trkpt>
            <trkpt lon="99.441279" lat="14.040326">
                <ele>51.567871</ele>
                <time>2010-09-19T08:24:24Z</time>
            </trkpt>
            <trkpt lon="99.440211" lat="14.038710">
                <ele>58.297119</ele>
                <time>2010-09-19T08:26:20Z</time>
            </trkpt>
            <trkpt lon="99.438228" lat="14.037402">
                <ele>68.871582</ele>
                <time>2010-09-19T08:27:16Z</time>
            </trkpt>
            <trkpt lon="99.437652" lat="14.037246">
                <ele>69.832886</ele>
                <time>2010-09-19T08:27:25Z</time>
            </trkpt>
            <trkpt lon="99.436526" lat="14.037840">
                <ele>73.678223</ele>
                <time>2010-09-19T08:27:44Z</time>
            </trkpt>
            <trkpt lon="99.436323" lat="14.038119">
                <ele>77.042847</ele>
                <time>2010-09-19T08:27:49Z</time>
            </trkpt>
            <trkpt lon="99.435611" lat="14.038696">
                <ele>80.407471</ele>
                <time>2010-09-19T08:28:03Z</time>
            </trkpt>
            <trkpt lon="99.435288" lat="14.038916">
                <ele>78.965454</ele>
                <time>2010-09-19T08:28:10Z</time>
            </trkpt>
            <trkpt lon="99.434647" lat="14.039065">
                <ele>78.004028</ele>
                <time>2010-09-19T08:28:33Z</time>
            </trkpt>
            <trkpt lon="99.434612" lat="14.039293">
                <ele>78.965454</ele>
                <time>2010-09-19T08:29:12Z</time>
            </trkpt>
            <trkpt lon="99.434147" lat="14.039863">
                <ele>80.407471</ele>
                <time>2010-09-19T08:29:31Z</time>
            </trkpt>
            <trkpt lon="99.433860" lat="14.040477">
                <ele>76.562134</ele>
                <time>2010-09-19T08:29:45Z</time>
            </trkpt>
            <trkpt lon="99.433671" lat="14.042328">
                <ele>77.523438</ele>
                <time>2010-09-19T08:30:27Z</time>
            </trkpt>
            <trkpt lon="99.434130" lat="14.043274">
                <ele>80.407471</ele>
                <time>2010-09-19T08:30:55Z</time>
            </trkpt>
            <trkpt lon="99.434149" lat="14.043355">
                <ele>80.407471</ele>
                <time>2010-09-19T08:30:57Z</time>
            </trkpt>
            <trkpt lon="99.434363" lat="14.043629">
                <ele>80.888184</ele>
                <time>2010-09-19T08:31:05Z</time>
            </trkpt>
            <trkpt lon="99.435729" lat="14.044428">
                <ele>86.175293</ele>
                <time>2010-09-19T08:31:47Z</time>
            </trkpt>
            <trkpt lon="99.436355" lat="14.044551">
                <ele>87.617188</ele>
                <time>2010-09-19T08:32:01Z</time>
            </trkpt>
            <trkpt lon="99.436741" lat="14.044684">
                <ele>87.136597</ele>
                <time>2010-09-19T08:32:14Z</time>
            </trkpt>
            <trkpt lon="99.436818" lat="14.045093">
                <ele>87.136597</ele>
                <time>2010-09-19T08:34:40Z</time>
            </trkpt>
            <trkpt lon="99.436603" lat="14.045194">
                <ele>85.694580</ele>
                <time>2010-09-19T08:35:56Z</time>
            </trkpt>
            <trkpt lon="99.435421" lat="14.044912">
                <ele>87.136597</ele>
                <time>2010-09-19T08:59:30Z</time>
            </trkpt>
            <trkpt lon="99.434878" lat="14.044896">
                <ele>86.656006</ele>
                <time>2010-09-19T09:01:06Z</time>
            </trkpt>
            <trkpt lon="99.434042" lat="14.045004">
                <ele>81.849365</ele>
                <time>2010-09-19T09:12:38Z</time>
            </trkpt>
            <trkpt lon="99.433688" lat="14.044351">
                <ele>79.446045</ele>
                <time>2010-09-19T09:13:13Z</time>
            </trkpt>
            <trkpt lon="99.433778" lat="14.044225">
                <ele>79.446045</ele>
                <time>2010-09-19T09:13:33Z</time>
            </trkpt>
            <trkpt lon="99.433706" lat="14.044055">
                <ele>78.004028</ele>
                <time>2010-09-19T09:13:50Z</time>
            </trkpt>
            <trkpt lon="99.433305" lat="14.043738">
                <ele>77.523438</ele>
                <time>2010-09-19T09:14:54Z</time>
            </trkpt>
            <trkpt lon="99.433160" lat="14.043199">
                <ele>74.158813</ele>
                <time>2010-09-19T09:15:57Z</time>
            </trkpt>
            <trkpt lon="99.432493" lat="14.042575">
                <ele>74.639526</ele>
                <time>2010-09-19T09:17:35Z</time>
            </trkpt>
            <trkpt lon="99.432343" lat="14.042305">
                <ele>84.252685</ele>
                <time>2010-09-19T09:23:15Z</time>
            </trkpt>
            <trkpt lon="99.432542" lat="14.042000">
                <ele>79.926636</ele>
                <time>2010-09-19T09:23:28Z</time>
            </trkpt>
            <trkpt lon="99.432566" lat="14.041801">
                <ele>75.600830</ele>
                <time>2010-09-19T09:24:55Z</time>
            </trkpt>
            <trkpt lon="99.432448" lat="14.041283">
                <ele>75.600830</ele>
                <time>2010-09-19T09:26:49Z</time>
            </trkpt>
            <trkpt lon="99.432271" lat="14.041238">
                <ele>76.081421</ele>
                <time>2010-09-19T09:27:21Z</time>
            </trkpt>
            <trkpt lon="99.432405" lat="14.040729">
                <ele>75.600830</ele>
                <time>2010-09-19T09:28:02Z</time>
            </trkpt>
            <trkpt lon="99.432413" lat="14.040726">
                <ele>75.120239</ele>
                <time>2010-09-19T09:28:09Z</time>
            </trkpt>
            <trkpt lon="99.431344" lat="14.040466">
                <ele>80.888184</ele>
                <time>2010-09-19T09:28:45Z</time>
            </trkpt>
            <trkpt lon="99.431227" lat="14.039761">
                <ele>83.291382</ele>
                <time>2010-09-19T09:29:06Z</time>
            </trkpt>
            <trkpt lon="99.431580" lat="14.038044">
                <ele>78.484741</ele>
                <time>2010-09-19T09:32:22Z</time>
            </trkpt>
            <trkpt lon="99.431870" lat="14.037643">
                <ele>77.042847</ele>
                <time>2010-09-19T09:32:41Z</time>
            </trkpt>
            <trkpt lon="99.432527" lat="14.037680">
                <ele>75.120239</ele>
                <time>2010-09-19T09:33:01Z</time>
            </trkpt>
            <trkpt lon="99.433026" lat="14.037547">
                <ele>73.678223</ele>
                <time>2010-09-19T09:33:16Z</time>
            </trkpt>
            <trkpt lon="99.433028" lat="14.036771">
                <ele>76.081421</ele>
                <time>2010-09-19T09:34:47Z</time>
            </trkpt>
            <trkpt lon="99.434006" lat="14.036216">
                <ele>72.236206</ele>
                <time>2010-09-19T09:35:25Z</time>
            </trkpt>
            <trkpt lon="99.435723" lat="14.035799">
                <ele>69.832886</ele>
                <time>2010-09-19T09:36:22Z</time>
            </trkpt>
            <trkpt lon="99.436671" lat="14.035884">
                <ele>68.390869</ele>
                <time>2010-09-19T09:38:31Z</time>
            </trkpt>
            <trkpt lon="99.437194" lat="14.035792">
                <ele>66.948975</ele>
                <time>2010-09-19T09:38:49Z</time>
            </trkpt>
            <trkpt lon="99.437727" lat="14.035324">
                <ele>67.910278</ele>
                <time>2010-09-19T09:39:25Z</time>
            </trkpt>
            <trkpt lon="99.438199" lat="14.035169">
                <ele>68.871582</ele>
                <time>2010-09-19T09:39:35Z</time>
            </trkpt>
            <trkpt lon="99.440248" lat="14.034608">
                <ele>62.622925</ele>
                <time>2010-09-19T09:40:14Z</time>
            </trkpt>
            <trkpt lon="99.441636" lat="14.035183">
                <ele>64.545654</ele>
                <time>2010-09-19T09:40:49Z</time>
            </trkpt>
            <trkpt lon="99.442400" lat="14.035517">
                <ele>61.661743</ele>
                <time>2010-09-19T09:41:04Z</time>
            </trkpt>
            <trkpt lon="99.442454" lat="14.035928">
                <ele>60.700317</ele>
                <time>2010-09-19T09:41:13Z</time>
            </trkpt>
            <trkpt lon="99.443142" lat="14.036693">
                <ele>59.739136</ele>
                <time>2010-09-19T09:41:34Z</time>
            </trkpt>
            <trkpt lon="99.443618" lat="14.037079">
                <ele>58.777710</ele>
                <time>2010-09-19T09:41:43Z</time>
            </trkpt>
            <trkpt lon="99.444447" lat="14.037438">
                <ele>54.451782</ele>
                <time>2010-09-19T09:42:02Z</time>
            </trkpt>
            <trkpt lon="99.444451" lat="14.037205">
                <ele>54.932373</ele>
                <time>2010-09-19T09:42:13Z</time>
            </trkpt>
            <trkpt lon="99.444888" lat="14.036886">
                <ele>55.893799</ele>
                <time>2010-09-19T09:42:23Z</time>
            </trkpt>
            <trkpt lon="99.445232" lat="14.036588">
                <ele>55.893799</ele>
                <time>2010-09-19T09:42:31Z</time>
            </trkpt>
            <trkpt lon="99.445692" lat="14.035580">
                <ele>55.413086</ele>
                <time>2010-09-19T09:42:50Z</time>
            </trkpt>
            <trkpt lon="99.447305" lat="14.035464">
                <ele>58.777710</ele>
                <time>2010-09-19T09:43:13Z</time>
            </trkpt>
            <trkpt lon="99.448388" lat="14.035249">
                <ele>58.297119</ele>
                <time>2010-09-19T09:43:24Z</time>
            </trkpt>
            <trkpt lon="99.449096" lat="14.035124">
                <ele>53.009766</ele>
                <time>2010-09-19T09:43:33Z</time>
            </trkpt>
            <trkpt lon="99.450050" lat="14.035409">
                <ele>53.971191</ele>
                <time>2010-09-19T09:44:08Z</time>
            </trkpt>
            <trkpt lon="99.450173" lat="14.035442">
                <ele>43.396606</ele>
                <time>2010-09-26T01:28:25Z</time>
            </trkpt>
            <trkpt lon="99.451954" lat="14.036279">
                <ele>41.954712</ele>
                <time>2010-09-26T01:29:06Z</time>
            </trkpt>
            <trkpt lon="99.453907" lat="14.035892">
                <ele>40.993408</ele>
                <time>2010-09-26T01:40:18Z</time>
            </trkpt>
            <trkpt lon="99.453950" lat="14.036064">
                <ele>40.512817</ele>
                <time>2010-09-26T01:40:27Z</time>
            </trkpt>
            <trkpt lon="99.456568" lat="14.037545">
                <ele>41.954712</ele>
                <time>2010-09-26T01:41:23Z</time>
            </trkpt>
            <trkpt lon="99.457233" lat="14.037802">
                <ele>40.032105</ele>
                <time>2010-09-26T01:42:23Z</time>
            </trkpt>
        </trkseg>
    </trk>
    <trk>
        <name>September 2010 - Sunday shortcut</name>
        <extensions>
            <gpxx:TrackExtension xmlns:gpxx="http://www.garmin.com/xmlschemas/GpxExtensions/v3">
                <gpxx:DisplayColor>DarkGreen</gpxx:DisplayColor>
            </gpxx:TrackExtension>
        </extensions>
        <trkseg>
            <trkpt lon="99.447598" lat="14.043124">
                <ele>37.628662</ele>
                <time>2010-09-26T02:02:16Z</time>
            </trkpt>
            <trkpt lon="99.447856" lat="14.042823">
                <ele>37.148071</ele>
                <time>2010-09-26T02:02:25Z</time>
            </trkpt>
            <trkpt lon="99.447942" lat="14.042802">
                <ele>36.667481</ele>
                <time>2010-09-26T02:02:32Z</time>
            </trkpt>
            <trkpt lon="99.447963" lat="14.042845">
                <ele>37.148071</ele>
                <time>2010-09-26T02:02:48Z</time>
            </trkpt>
            <trkpt lon="99.448242" lat="14.042737">
                <ele>38.590088</ele>
                <time>2010-09-26T02:02:55Z</time>
            </trkpt>
            <trkpt lon="99.448693" lat="14.042480">
                <ele>40.993408</ele>
                <time>2010-09-26T02:03:00Z</time>
            </trkpt>
            <trkpt lon="99.449637" lat="14.041944">
                <ele>43.396606</ele>
                <time>2010-09-26T02:03:08Z</time>
            </trkpt>
            <trkpt lon="99.451353" lat="14.041235">
                <ele>41.954712</ele>
                <time>2010-09-26T02:03:20Z</time>
            </trkpt>
            <trkpt lon="99.452362" lat="14.040957">
                <ele>39.070679</ele>
                <time>2010-09-26T02:03:28Z</time>
            </trkpt>
            <trkpt lon="99.453671" lat="14.040463">
                <ele>38.590088</ele>
                <time>2010-09-26T02:03:39Z</time>
            </trkpt>
            <trkpt lon="99.453864" lat="14.040356">
                <ele>37.628662</ele>
                <time>2010-09-26T02:03:41Z</time>
            </trkpt>
            <trkpt lon="99.454422" lat="14.039819">
                <ele>39.551269</ele>
                <time>2010-09-26T02:03:47Z</time>
            </trkpt>
            <trkpt lon="99.455431" lat="14.038510">
                <ele>42.435425</ele>
                <time>2010-09-26T02:03:57Z</time>
            </trkpt>
            <trkpt lon="99.455945" lat="14.037909">
                <ele>42.435425</ele>
                <time>2010-09-26T02:04:02Z</time>
            </trkpt>
            <trkpt lon="99.456310" lat="14.037631">
                <ele>39.070679</ele>
                <time>2010-09-26T02:04:06Z</time>
            </trkpt>
            <trkpt lon="99.456375" lat="14.037588">
                <ele>39.070679</ele>
                <time>2010-09-26T02:04:07Z</time>
            </trkpt>
            <trkpt lon="99.456439" lat="14.037416">
                <ele>38.590088</ele>
                <time>2010-09-26T02:04:13Z</time>
            </trkpt>
            <trkpt lon="99.456568" lat="14.037545">
                <ele>41.954712</ele>
                <time>2010-09-26T01:41:23Z</time>
            </trkpt>
            <trkpt lon="99.456975" lat="14.037738">
                <ele>40.993408</ele>
                <time>2010-09-26T01:41:37Z</time>
            </trkpt>
            <trkpt lon="99.457083" lat="14.037781">
                <ele>40.993408</ele>
                <time>2010-09-26T01:41:41Z</time>
            </trkpt>
            <trkpt lon="99.457233" lat="14.037802">
                <ele>40.993408</ele>
                <time>2010-09-26T01:41:46Z</time>
            </trkpt>
            <trkpt lon="99.457254" lat="14.037781">
                <ele>40.512817</ele>
                <time>2010-09-26T01:42:02Z</time>
            </trkpt>
            <trkpt lon="99.457233" lat="14.037802">
                <ele>40.032105</ele>
                <time>2010-09-26T01:42:23Z</time>
            </trkpt>
        </trkseg>
    </trk>
</gpx>